createdAt,value
2023-02-05T00:00:02.436Z,1026.72
2023-02-05T00:01:02.742Z,1026.71
2023-02-05T00:02:03.076Z,1026.74
2023-02-05T00:03:02.869Z,1026.71
2023-02-05T00:04:02.574Z,1026.69
2023-02-05T00:05:02.787Z,1026.61
2023-02-05T00:06:03.130Z,1026.62
2023-02-05T00:07:03.031Z,1026.56
2023-02-05T00:08:02.757Z,1026.51
2023-02-05T00:09:02.823Z,1026.52
2023-02-05T00:10:03.326Z,1026.49
2023-02-05T00:11:03.031Z,1026.52
2023-02-05T00:12:03.272Z,1026.42
2023-02-05T00:13:03.328Z,1026.41
2023-02-05T00:14:03.026Z,1026.42
2023-02-05T00:15:03.071Z,1026.42
2023-02-05T00:16:03.321Z,1026.38
2023-02-05T00:17:02.735Z,1026.34
2023-02-05T00:18:02.507Z,1026.31
2023-02-05T00:19:02.406Z,1026.30
2023-02-05T00:20:02.655Z,1026.21
2023-02-05T00:21:02.498Z,1026.07
2023-02-05T00:22:02.976Z,1026.08
2023-02-05T00:23:02.908Z,1026.09
2023-02-05T00:24:03.022Z,1026.12
2023-02-05T00:25:02.872Z,1026.10
2023-02-05T00:26:02.738Z,1026.09
2023-02-05T00:27:02.673Z,1026.05
2023-02-05T00:28:02.659Z,1026.10
2023-02-05T00:29:02.391Z,1026.06
2023-02-05T00:30:02.584Z,1026.01
2023-02-05T00:31:02.797Z,1025.94
2023-02-05T00:32:02.280Z,1025.95
2023-02-05T00:33:02.564Z,1025.96
2023-02-05T00:34:02.615Z,1025.92
2023-02-05T00:35:02.539Z,1025.93
2023-02-05T00:36:02.444Z,1025.94
2023-02-05T00:37:03.294Z,1025.88
2023-02-05T00:38:03.167Z,1025.89
2023-02-05T00:39:03.428Z,1025.91
2023-02-05T00:40:03.283Z,1025.97
2023-02-05T00:41:03.383Z,1025.96
2023-02-05T00:42:02.780Z,1025.96
2023-02-05T00:43:02.424Z,1025.96
2023-02-05T00:44:02.499Z,1025.91
2023-02-05T00:45:02.453Z,1025.93
2023-02-05T00:46:02.945Z,1025.94
2023-02-05T00:47:02.553Z,1025.93
2023-02-05T00:48:03.144Z,1025.84
2023-02-05T00:49:02.755Z,1025.80
2023-02-05T00:50:02.749Z,1025.83
2023-02-05T00:51:02.533Z,1025.86
2023-02-05T00:52:03.271Z,1025.87
2023-02-05T00:53:03.440Z,1025.88
2023-02-05T00:54:03.173Z,1025.85
2023-02-05T00:55:03.134Z,1025.84
2023-02-05T00:56:03.250Z,1025.83
2023-02-05T00:57:02.934Z,1025.79
2023-02-05T00:58:02.532Z,1025.84
2023-02-05T00:59:02.437Z,1025.75
2023-02-05T01:00:02.915Z,1025.80
2023-02-05T01:01:02.831Z,1025.87
2023-02-05T01:02:02.467Z,1025.89
2023-02-05T01:03:02.415Z,1025.92
2023-02-05T01:04:01.840Z,1025.92
2023-02-05T01:05:02.364Z,1025.90
2023-02-05T01:06:02.080Z,1025.91
2023-02-05T01:07:02.323Z,1025.87
2023-02-05T01:08:02.650Z,1025.79
2023-02-05T01:09:02.577Z,1025.86
2023-02-05T01:10:02.561Z,1025.83
2023-02-05T01:11:02.601Z,1025.74
2023-02-05T01:12:03.193Z,1025.72
2023-02-05T01:13:02.744Z,1025.72
2023-02-05T01:14:02.686Z,1025.70
2023-02-05T01:15:03.054Z,1025.64
2023-02-05T01:16:02.995Z,1025.65
2023-02-05T01:17:02.801Z,1025.61
2023-02-05T01:18:02.620Z,1025.59
2023-02-05T01:19:02.572Z,1025.61
2023-02-05T01:20:02.544Z,1025.57
2023-02-05T01:21:02.887Z,1025.54
2023-02-05T01:22:02.424Z,1025.53
2023-02-05T01:23:02.848Z,1025.58
2023-02-05T01:24:02.713Z,1025.60
2023-02-05T01:25:02.395Z,1025.61
2023-02-05T01:26:02.813Z,1025.64
2023-02-05T01:27:02.389Z,1025.64
2023-02-05T01:28:02.202Z,1025.62
2023-02-05T01:29:02.234Z,1025.63
2023-02-05T01:30:02.538Z,1025.63
2023-02-05T01:31:01.900Z,1025.59
2023-02-05T01:32:02.095Z,1025.53
2023-02-05T01:33:02.606Z,1025.53
2023-02-05T01:34:02.576Z,1025.54
2023-02-05T01:35:02.527Z,1025.50
2023-02-05T01:36:02.028Z,1025.44
2023-02-05T01:37:02.430Z,1025.36
2023-02-05T01:38:02.767Z,1025.32
2023-02-05T01:39:02.446Z,1025.35
2023-02-05T01:40:03.049Z,1025.28
2023-02-05T01:41:02.939Z,1025.29
2023-02-05T01:42:02.386Z,1025.29
2023-02-05T01:43:02.414Z,1025.22
2023-02-05T01:44:02.179Z,1025.21
2023-02-05T01:45:02.375Z,1025.26
2023-02-05T01:46:02.424Z,1025.27
2023-02-05T01:47:01.798Z,1025.36
2023-02-05T01:48:02.113Z,1025.28
2023-02-05T01:49:02.135Z,1025.32
2023-02-05T01:50:02.167Z,1025.37
2023-02-05T01:51:02.047Z,1025.41
2023-02-05T01:52:02.290Z,1025.37
2023-02-05T01:53:02.542Z,1025.39
2023-02-05T01:54:02.511Z,1025.40
2023-02-05T01:55:02.409Z,1025.31
2023-02-05T01:56:02.223Z,1025.31
2023-02-05T01:57:02.216Z,1025.32
2023-02-05T01:58:02.025Z,1025.29
2023-02-05T01:59:01.865Z,1025.23
2023-02-05T02:00:01.794Z,1025.17
2023-02-05T02:01:01.835Z,1025.10
2023-02-05T02:02:02.215Z,1025.08
2023-02-05T02:03:02.872Z,1025.06
2023-02-05T02:04:02.258Z,1025.20
2023-02-05T02:05:02.329Z,1025.16
2023-02-05T02:06:02.580Z,1025.17
2023-02-05T02:07:02.585Z,1025.18
2023-02-05T02:08:02.634Z,1025.20
2023-02-05T02:09:02.997Z,1025.28
2023-02-05T02:10:02.955Z,1025.28
2023-02-05T02:11:02.981Z,1025.32
2023-02-05T02:12:02.726Z,1025.37
2023-02-05T02:13:02.623Z,1025.33
2023-02-05T02:14:02.627Z,1025.35
2023-02-05T02:15:03.040Z,1025.36
2023-02-05T02:16:02.703Z,1025.31
2023-02-05T02:17:02.443Z,1025.29
2023-02-05T02:18:02.514Z,1025.27
2023-02-05T02:19:02.449Z,1025.28
2023-02-05T02:20:02.540Z,1025.27
2023-02-05T02:21:01.987Z,1025.33
2023-02-05T02:22:02.356Z,1025.31
2023-02-05T02:23:02.189Z,1025.35
2023-02-05T02:24:02.802Z,1025.29
2023-02-05T02:25:02.494Z,1025.26
2023-02-05T02:26:02.220Z,1025.20
2023-02-05T02:27:02.179Z,1025.12
2023-02-05T02:28:01.944Z,1025.13
2023-02-05T02:29:01.933Z,1025.08
2023-02-05T02:30:01.925Z,1025.10
2023-02-05T02:31:02.260Z,1025.09
2023-02-05T02:32:02.724Z,1025.08
2023-02-05T02:33:02.797Z,1025.10
2023-02-05T02:34:02.681Z,1025.09
2023-02-05T02:35:02.213Z,1025.06
2023-02-05T02:36:02.407Z,1025.08
2023-02-05T02:37:02.322Z,1025.05
2023-02-05T02:38:01.895Z,1025.06
2023-02-05T02:39:02.327Z,1025.04
2023-02-05T02:40:02.065Z,1025.03
2023-02-05T02:41:01.824Z,1025.05
2023-02-05T02:42:02.176Z,1025.08
2023-02-05T02:43:02.613Z,1025.08
2023-02-05T02:44:02.561Z,1025.10
2023-02-05T02:45:02.708Z,1025.08
2023-02-05T02:46:02.412Z,1025.10
2023-02-05T02:47:01.933Z,1025.07
2023-02-05T02:48:01.692Z,1025.07
2023-02-05T02:49:01.766Z,1025.16
2023-02-05T02:50:01.451Z,1025.16
2023-02-05T02:51:02.046Z,1025.22
2023-02-05T02:52:02.092Z,1025.21
2023-02-05T02:53:01.661Z,1025.28
2023-02-05T02:54:01.429Z,1025.26
2023-02-05T02:55:01.804Z,1025.33
2023-02-05T02:56:01.554Z,1025.39
2023-02-05T02:57:02.322Z,1025.40
2023-02-05T02:58:02.337Z,1025.47
2023-02-05T02:59:02.096Z,1025.34
2023-02-05T03:00:02.448Z,1025.29
2023-02-05T03:01:01.945Z,1025.27
2023-02-05T03:02:02.769Z,1025.32
2023-02-05T03:03:02.761Z,1025.24
2023-02-05T03:04:02.511Z,1025.27
2023-02-05T03:05:02.731Z,1025.35
2023-02-05T03:06:02.899Z,1025.34
2023-02-05T03:07:03.149Z,1025.37
2023-02-05T03:08:02.759Z,1025.37
2023-02-05T03:09:02.685Z,1025.32
2023-02-05T03:10:02.826Z,1025.30
2023-02-05T03:11:02.742Z,1025.32
2023-02-05T03:12:02.492Z,1025.31
2023-02-05T03:13:02.876Z,1025.30
2023-02-05T03:14:02.864Z,1025.30
2023-02-05T03:15:02.794Z,1025.26
2023-02-05T03:16:02.389Z,1025.33
2023-02-05T03:17:02.420Z,1025.25
2023-02-05T03:18:02.941Z,1025.29
2023-02-05T03:19:02.426Z,1025.32
2023-02-05T03:20:02.810Z,1025.25
2023-02-05T03:21:02.355Z,1025.35
2023-02-05T03:22:03.190Z,1025.34
2023-02-05T03:23:02.723Z,1025.33
2023-02-05T03:24:02.737Z,1025.31
2023-02-05T03:25:02.724Z,1025.32
2023-02-05T03:26:03.244Z,1025.35
2023-02-05T03:27:02.965Z,1025.41
2023-02-05T03:28:03.216Z,1025.41
2023-02-05T03:29:03.336Z,1025.47
2023-02-05T03:30:03.179Z,1025.45
2023-02-05T03:31:03.532Z,1025.51
2023-02-05T03:32:03.030Z,1025.50
2023-02-05T03:33:03.158Z,1025.43
2023-02-05T03:34:03.386Z,1025.37
2023-02-05T03:35:03.420Z,1025.37
2023-02-05T03:36:03.173Z,1025.26
2023-02-05T03:37:03.641Z,1025.16
2023-02-05T03:38:03.251Z,1025.11
2023-02-05T03:39:03.390Z,1025.08
2023-02-05T03:40:03.214Z,1025.07
2023-02-05T03:41:03.618Z,1025.04
2023-02-05T03:42:02.748Z,1025.03
2023-02-05T03:43:02.821Z,1024.97
2023-02-05T03:44:02.651Z,1024.87
2023-02-05T03:45:03.040Z,1024.84
2023-02-05T03:46:02.855Z,1024.80
2023-02-05T03:47:03.092Z,1024.81
2023-02-05T03:48:03.400Z,1024.78
2023-02-05T03:49:03.131Z,1024.83
2023-02-05T03:50:03.382Z,1024.79
2023-02-05T03:51:03.380Z,1024.73
2023-02-05T03:52:02.634Z,1024.77
2023-02-05T03:53:02.296Z,1024.77
2023-02-05T03:54:02.216Z,1024.75
2023-02-05T03:55:02.546Z,1024.73
2023-02-05T03:56:02.155Z,1024.71
2023-02-05T03:57:02.828Z,1024.70
2023-02-05T03:58:02.881Z,1024.75
2023-02-05T03:59:03.011Z,1024.77
2023-02-05T04:00:02.841Z,1024.75
2023-02-05T04:01:03.009Z,1024.81
2023-02-05T04:02:02.738Z,1024.75
2023-02-05T04:03:02.156Z,1024.81
2023-02-05T04:04:02.335Z,1024.84
2023-02-05T04:05:02.522Z,1024.88
2023-02-05T04:06:02.632Z,1024.93
2023-02-05T04:07:02.781Z,1024.89
2023-02-05T04:08:02.593Z,1024.88
2023-02-05T04:09:02.533Z,1024.86
2023-02-05T04:10:02.761Z,1024.79
2023-02-05T04:11:02.318Z,1024.80
2023-02-05T04:12:02.968Z,1024.86
2023-02-05T04:13:03.052Z,1024.88
2023-02-05T04:14:03.095Z,1024.91
2023-02-05T04:15:02.544Z,1024.89
2023-02-05T04:16:02.809Z,1024.96
2023-02-05T04:17:02.257Z,1024.97
2023-02-05T04:18:01.989Z,1024.96
2023-02-05T04:19:02.093Z,1024.96
2023-02-05T04:20:02.202Z,1024.98
2023-02-05T04:21:02.519Z,1024.94
2023-02-05T04:22:02.608Z,1024.93
2023-02-05T04:23:02.584Z,1024.98
2023-02-05T04:24:03.097Z,1025.02
2023-02-05T04:25:02.598Z,1024.99
2023-02-05T04:26:02.601Z,1025.00
2023-02-05T04:27:02.143Z,1025.04
2023-02-05T04:28:02.380Z,1025.04
2023-02-05T04:29:02.191Z,1025.05
2023-02-05T04:30:02.054Z,1025.10
2023-02-05T04:31:02.543Z,1025.07
2023-02-05T04:32:02.632Z,1025.04
2023-02-05T04:33:02.421Z,1025.08
2023-02-05T04:34:02.618Z,1025.08
2023-02-05T04:35:02.481Z,1025.09
2023-02-05T04:36:02.586Z,1025.06
2023-02-05T04:37:02.482Z,1025.08
2023-02-05T04:38:02.605Z,1025.02
2023-02-05T04:39:02.942Z,1025.04
2023-02-05T04:40:02.878Z,1025.01
2023-02-05T04:41:02.980Z,1025.00
2023-02-05T04:42:02.278Z,1025.05
2023-02-05T04:43:02.357Z,1025.02
2023-02-05T04:44:02.182Z,1025.03
2023-02-05T04:45:02.314Z,1025.11
2023-02-05T04:46:02.149Z,1025.11
2023-02-05T04:47:02.636Z,1025.19
2023-02-05T04:48:02.250Z,1025.18
2023-02-05T04:49:02.665Z,1025.14
2023-02-05T04:50:02.433Z,1025.20
2023-02-05T04:51:02.417Z,1025.19
2023-02-05T04:52:01.914Z,1025.24
2023-02-05T04:53:02.421Z,1025.23
2023-02-05T04:54:01.927Z,1025.25
2023-02-05T04:55:01.895Z,1025.23
2023-02-05T04:56:02.097Z,1025.25
2023-02-05T04:57:01.937Z,1025.25
2023-02-05T04:58:01.803Z,1025.22
2023-02-05T04:59:02.066Z,1025.17
2023-02-05T05:00:02.050Z,1025.22
2023-02-05T05:01:01.755Z,1025.19
2023-02-05T05:02:02.962Z,1025.19
2023-02-05T05:03:03.209Z,1025.17
2023-02-05T05:04:03.352Z,1025.16
2023-02-05T05:05:03.030Z,1025.19
2023-02-05T05:06:02.796Z,1025.18
2023-02-05T05:07:02.096Z,1025.24
2023-02-05T05:08:02.050Z,1025.20
2023-02-05T05:09:02.071Z,1025.18
2023-02-05T05:10:01.955Z,1025.21
2023-02-05T05:11:02.311Z,1025.16
2023-02-05T05:12:02.816Z,1025.13
2023-02-05T05:13:02.378Z,1025.19
2023-02-05T05:14:02.377Z,1025.13
2023-02-05T05:15:02.840Z,1025.20
2023-02-05T05:16:02.603Z,1025.10
2023-02-05T05:17:03.294Z,1025.09
2023-02-05T05:18:03.189Z,1024.96
2023-02-05T05:19:03.275Z,1024.99
2023-02-05T05:20:02.889Z,1024.98
2023-02-05T05:21:02.676Z,1025.01
2023-02-05T05:22:02.803Z,1025.02
2023-02-05T05:23:02.695Z,1024.92
2023-02-05T05:24:02.827Z,1024.97
2023-02-05T05:25:02.603Z,1024.95
2023-02-05T05:26:02.658Z,1024.96
2023-02-05T05:27:03.264Z,1024.90
2023-02-05T05:28:02.894Z,1024.82
2023-02-05T05:29:02.793Z,1024.81
2023-02-05T05:30:03.119Z,1024.73
2023-02-05T05:31:03.091Z,1024.75
2023-02-05T05:32:02.240Z,1024.76
2023-02-05T05:33:02.659Z,1024.74
2023-02-05T05:34:02.914Z,1024.76
2023-02-05T05:35:02.673Z,1024.71
2023-02-05T05:36:02.869Z,1024.74
2023-02-05T05:37:02.754Z,1024.73
2023-02-05T05:38:02.417Z,1024.81
2023-02-05T05:39:03.013Z,1024.88
2023-02-05T05:40:02.504Z,1024.84
2023-02-05T05:41:02.902Z,1024.89
2023-02-05T05:42:03.017Z,1024.88
2023-02-05T05:43:02.505Z,1024.91
2023-02-05T05:44:02.752Z,1024.85
2023-02-05T05:45:02.878Z,1024.84
2023-02-05T05:46:03.001Z,1024.86
2023-02-05T05:47:02.085Z,1024.90
2023-02-05T05:48:01.899Z,1024.91
2023-02-05T05:49:02.192Z,1024.90
2023-02-05T05:50:02.053Z,1024.89
2023-02-05T05:51:01.911Z,1024.90
2023-02-05T05:52:02.470Z,1024.86
2023-02-05T05:53:02.270Z,1024.93
2023-02-05T05:54:02.424Z,1024.86
2023-02-05T05:55:02.506Z,1024.91
2023-02-05T05:56:02.085Z,1024.89
2023-02-05T05:57:02.601Z,1024.96
2023-02-05T05:58:03.008Z,1024.99
2023-02-05T05:59:03.165Z,1025.03
2023-02-05T06:00:03.092Z,1024.98
2023-02-05T06:01:02.921Z,1025.04
2023-02-05T06:02:01.827Z,1025.00
2023-02-05T06:03:01.587Z,1024.98
2023-02-05T06:04:04.151Z,1024.97
2023-02-05T06:05:02.087Z,1024.97
2023-02-05T06:06:01.929Z,1024.95
2023-02-05T06:07:02.323Z,1024.90
2023-02-05T06:08:02.392Z,1024.87
2023-02-05T06:09:08.475Z,1024.79
2023-02-05T06:10:02.349Z,1024.76
2023-02-05T06:11:02.449Z,1024.77
2023-02-05T06:12:02.262Z,1024.69
2023-02-05T06:13:02.015Z,1024.57
2023-02-05T06:14:01.578Z,1024.56
2023-02-05T06:15:02.155Z,1024.54
2023-02-05T06:16:01.556Z,1024.56
2023-02-05T06:17:02.285Z,1024.59
2023-02-05T06:18:01.938Z,1024.64
2023-02-05T06:19:01.902Z,1024.68
2023-02-05T06:20:01.853Z,1024.63
2023-02-05T06:21:01.735Z,1024.63
2023-02-05T06:22:01.999Z,1024.62
2023-02-05T06:23:02.050Z,1024.62
2023-02-05T06:24:02.156Z,1024.67
2023-02-05T06:25:01.944Z,1024.69
2023-02-05T06:26:02.193Z,1024.72
2023-02-05T06:27:02.627Z,1024.68
2023-02-05T06:28:02.584Z,1024.76
2023-02-05T06:29:02.442Z,1024.74
2023-02-05T06:30:02.889Z,1024.73
2023-02-05T06:31:03.034Z,1024.74
2023-02-05T06:32:01.622Z,1024.76
2023-02-05T06:33:01.611Z,1024.76
2023-02-05T06:34:01.454Z,1024.73
2023-02-05T06:35:02.012Z,1024.72
2023-02-05T06:36:01.488Z,1024.74
2023-02-05T06:37:02.606Z,1024.74
2023-02-05T06:38:02.096Z,1024.71
2023-02-05T06:39:02.342Z,1024.70
2023-02-05T06:40:01.997Z,1024.72
2023-02-05T06:41:02.034Z,1024.77
2023-02-05T06:42:01.770Z,1024.80
2023-02-05T06:43:01.924Z,1024.76
2023-02-05T06:44:01.745Z,1024.82
2023-02-05T06:45:02.002Z,1024.82
2023-02-05T06:46:01.991Z,1024.74
2023-02-05T06:47:02.443Z,1024.77
2023-02-05T06:48:02.650Z,1024.74
2023-02-05T06:49:02.728Z,1024.72
2023-02-05T06:50:02.738Z,1024.66
2023-02-05T06:51:02.666Z,1024.67
2023-02-05T06:52:02.451Z,1024.65
2023-02-05T06:53:02.801Z,1024.70
2023-02-05T06:54:02.803Z,1024.69
2023-02-05T06:55:02.752Z,1024.67
2023-02-05T06:56:02.353Z,1024.73
2023-02-05T06:57:01.986Z,1024.75
2023-02-05T06:58:01.676Z,1024.73
2023-02-05T06:59:01.754Z,1024.63
2023-02-05T07:00:01.688Z,1024.66
2023-02-05T07:01:01.660Z,1024.66
2023-02-05T07:02:02.165Z,1024.66
2023-02-05T07:03:02.058Z,1024.59
2023-02-05T07:04:02.360Z,1024.67
2023-02-05T07:05:02.122Z,1024.74
2023-02-05T07:06:02.082Z,1024.62
2023-02-05T07:07:02.715Z,1024.67
2023-02-05T07:08:02.846Z,1024.71
2023-02-05T07:09:02.830Z,1024.66
2023-02-05T07:10:02.305Z,1024.69
2023-02-05T07:11:02.904Z,1024.60
2023-02-05T07:12:02.431Z,1024.59
2023-02-05T07:13:04.413Z,1024.63
2023-02-05T07:14:01.996Z,1024.59
2023-02-05T07:15:02.145Z,1024.60
2023-02-05T07:16:02.552Z,1024.57
2023-02-05T07:17:02.198Z,1024.62
2023-02-05T07:18:02.086Z,1024.58
2023-02-05T07:19:01.968Z,1024.57
2023-02-05T07:20:01.795Z,1024.54
2023-02-05T07:21:01.913Z,1024.56
2023-02-05T07:22:01.982Z,1024.55
2023-02-05T07:23:02.474Z,1024.52
2023-02-05T07:24:01.914Z,1024.51
2023-02-05T07:25:04.434Z,1024.54
2023-02-05T07:26:02.296Z,1024.56
2023-02-05T07:27:02.894Z,1024.53
2023-02-05T07:28:02.776Z,1024.57
2023-02-05T07:29:02.988Z,1024.54
2023-02-05T07:30:02.821Z,1024.50
2023-02-05T07:31:02.991Z,1024.52
2023-02-05T07:32:02.580Z,1024.52
2023-02-05T07:33:02.218Z,1024.52
2023-02-05T07:34:02.188Z,1024.55
2023-02-05T07:35:02.147Z,1024.58
2023-02-05T07:36:02.054Z,1024.55
2023-02-05T07:37:02.076Z,1024.61
2023-02-05T07:38:01.705Z,1024.53
2023-02-05T07:39:01.881Z,1024.56
2023-02-05T07:40:02.176Z,1024.51
2023-02-05T07:41:02.121Z,1024.55
2023-02-05T07:42:02.292Z,1024.49
2023-02-05T07:43:02.199Z,1024.56
2023-02-05T07:44:02.271Z,1024.52
2023-02-05T07:45:01.703Z,1024.46
2023-02-05T07:46:01.684Z,1024.53
2023-02-05T07:47:01.784Z,1024.51
2023-02-05T07:48:01.974Z,1024.46
2023-02-05T07:49:01.983Z,1024.48
2023-02-05T07:50:02.334Z,1024.40
2023-02-05T07:51:02.398Z,1024.40
2023-02-05T07:52:02.750Z,1024.38
2023-02-05T07:53:02.476Z,1024.36
2023-02-05T07:54:02.741Z,1024.41
2023-02-05T07:55:02.144Z,1024.29
2023-02-05T07:56:02.062Z,1024.30
2023-02-05T07:57:01.362Z,1024.37
2023-02-05T07:58:01.322Z,1024.29
2023-02-05T07:59:01.988Z,1024.33
2023-02-05T08:00:01.617Z,1024.31
2023-02-05T08:01:01.753Z,1024.33
2023-02-05T08:02:02.710Z,1024.30
2023-02-05T08:03:02.689Z,1024.34
2023-02-05T08:04:02.659Z,1024.28
2023-02-05T08:05:02.876Z,1024.29
2023-02-05T08:06:02.402Z,1024.24
2023-02-05T08:07:02.125Z,1024.25
2023-02-05T08:08:01.993Z,1024.21
2023-02-05T08:09:01.478Z,1024.21
2023-02-05T08:10:01.494Z,1024.33
2023-02-05T08:11:01.542Z,1024.23
2023-02-05T08:12:02.047Z,1024.20
2023-02-05T08:13:02.294Z,1024.21
2023-02-05T08:14:02.261Z,1024.22
2023-02-05T08:15:02.634Z,1024.18
2023-02-05T08:16:02.124Z,1024.21
2023-02-05T08:17:02.186Z,1024.26
2023-02-05T08:18:02.460Z,1024.22
2023-02-05T08:19:02.371Z,1024.17
2023-02-05T08:20:02.417Z,1024.24
2023-02-05T08:21:02.381Z,1024.17
2023-02-05T08:22:01.739Z,1024.16
2023-02-05T08:23:01.657Z,1024.16
2023-02-05T08:24:02.171Z,1024.14
2023-02-05T08:25:02.154Z,1024.18
2023-02-05T08:26:01.853Z,1024.19
2023-02-05T08:27:02.180Z,1024.20
2023-02-05T08:28:02.272Z,1024.15
2023-02-05T08:29:02.727Z,1024.21
2023-02-05T08:30:02.603Z,1024.23
2023-02-05T08:31:02.397Z,1024.26
2023-02-05T08:32:01.611Z,1024.27
2023-02-05T08:33:01.794Z,1024.28
2023-02-05T08:34:01.564Z,1024.25
2023-02-05T08:35:01.766Z,1024.27
2023-02-05T08:36:01.926Z,1024.21
2023-02-05T08:37:02.263Z,1024.21
2023-02-05T08:38:02.187Z,1024.23
2023-02-05T08:39:02.562Z,1024.14
2023-02-05T08:40:02.737Z,1024.08
2023-02-05T08:41:02.493Z,1024.13
2023-02-05T08:42:01.802Z,1024.13
2023-02-05T08:43:01.903Z,1024.15
2023-02-05T08:44:02.146Z,1024.22
2023-02-05T08:45:01.951Z,1024.15
2023-02-05T08:46:02.080Z,1024.12
2023-02-05T08:47:01.856Z,1024.12
2023-02-05T08:48:01.696Z,1024.11
2023-02-05T08:49:02.101Z,1024.13
2023-02-05T08:50:02.294Z,1024.11
2023-02-05T08:51:01.714Z,1024.16
2023-02-05T08:52:02.247Z,1024.16
2023-02-05T08:53:02.495Z,1024.21
2023-02-05T08:54:02.479Z,1024.18
2023-02-05T08:55:02.382Z,1024.19
2023-02-05T08:56:02.435Z,1024.18
2023-02-05T08:57:02.064Z,1024.17
2023-02-05T08:58:02.391Z,1024.24
2023-02-05T08:59:02.080Z,1024.13
2023-02-05T09:00:02.078Z,1024.10
2023-02-05T09:01:01.982Z,1024.12
2023-02-05T09:02:02.233Z,1024.09
2023-02-05T09:03:02.520Z,1024.08
2023-02-05T09:04:02.420Z,1024.07
2023-02-05T09:05:08.771Z,1024.07
2023-02-05T09:06:02.343Z,1024.05
2023-02-05T09:07:03.334Z,1024.05
2023-02-05T09:08:02.465Z,1024.01
2023-02-05T09:09:02.932Z,1024.08
2023-02-05T09:10:02.978Z,1024.09
2023-02-05T09:11:02.756Z,1024.09
2023-02-05T09:12:02.882Z,1024.03
2023-02-05T09:13:02.732Z,1023.98
2023-02-05T09:14:02.748Z,1023.93
2023-02-05T09:15:03.038Z,1023.89
2023-02-05T09:16:03.152Z,1023.92
2023-02-05T09:17:02.332Z,1023.89
2023-02-05T09:18:02.438Z,1023.84
2023-02-05T09:19:02.511Z,1023.89
2023-02-05T09:20:02.518Z,1023.87
2023-02-05T09:21:02.162Z,1023.89
2023-02-05T09:22:02.682Z,1023.87
2023-02-05T09:23:02.575Z,1023.83
2023-02-05T09:24:02.538Z,1023.76
2023-02-05T09:25:03.149Z,1023.77
2023-02-05T09:26:02.890Z,1023.79
2023-02-05T09:27:02.249Z,1023.71
2023-02-05T09:28:02.290Z,1023.67
2023-02-05T09:29:02.203Z,1023.69
2023-02-05T09:30:02.089Z,1023.73
2023-02-05T09:31:01.970Z,1023.76
2023-02-05T09:32:02.757Z,1023.62
2023-02-05T09:33:02.991Z,1023.61
2023-02-05T09:34:02.481Z,1023.78
2023-02-05T09:35:02.459Z,1023.74
2023-02-05T09:36:02.636Z,1023.70
2023-02-05T09:37:02.256Z,1023.73
2023-02-05T09:38:02.415Z,1023.69
2023-02-05T09:39:14.101Z,1023.71
2023-02-05T09:41:02.074Z,1023.67
2023-02-05T09:42:02.691Z,1023.82
2023-02-05T09:43:02.939Z,1023.79
2023-02-05T09:44:02.914Z,1023.72
2023-02-05T09:45:02.713Z,1023.80
2023-02-05T09:46:02.379Z,1023.74
2023-02-05T09:47:03.083Z,1023.78
2023-02-05T09:48:02.853Z,1023.75
2023-02-05T09:49:03.137Z,1023.80
2023-02-05T09:50:02.976Z,1023.80
2023-02-05T09:51:03.300Z,1023.79
2023-02-05T09:52:02.370Z,1023.78
2023-02-05T09:53:02.315Z,1023.83
2023-02-05T09:54:02.362Z,1023.90
2023-02-05T09:55:02.095Z,1023.89
2023-02-05T09:56:02.304Z,1023.84
2023-02-05T09:57:02.959Z,1023.96
2023-02-05T09:58:02.985Z,1023.92
2023-02-05T09:59:02.537Z,1023.93
2023-02-05T10:00:02.599Z,1023.86
2023-02-05T10:01:02.744Z,1023.99
2023-02-05T10:02:05.819Z,1023.91
2023-02-05T10:03:03.089Z,1023.93
2023-02-05T10:04:03.059Z,1023.96
2023-02-05T10:05:03.352Z,1023.90
2023-02-05T10:06:03.065Z,1023.94
2023-02-05T10:07:03.723Z,1023.94
2023-02-05T10:08:03.560Z,1023.83
2023-02-05T10:09:03.449Z,1023.89
2023-02-05T10:10:03.494Z,1023.89
2023-02-05T10:11:03.460Z,1023.92
2023-02-05T10:12:03.166Z,1023.92
2023-02-05T10:13:03.001Z,1023.91
2023-02-05T10:14:03.192Z,1023.96
2023-02-05T10:15:03.253Z,1024.03
2023-02-05T10:16:03.060Z,1023.97
2023-02-05T10:17:03.533Z,1024.17
2023-02-05T10:18:03.371Z,1024.00
2023-02-05T10:19:03.299Z,1024.08
2023-02-05T10:20:03.243Z,1024.13
2023-02-05T10:21:03.095Z,1024.15
2023-02-05T10:22:03.210Z,1024.17
2023-02-05T10:23:02.904Z,1024.19
2023-02-05T10:24:02.913Z,1024.33
2023-02-05T10:25:02.816Z,1024.31
2023-02-05T10:26:02.664Z,1024.38
2023-02-05T10:27:03.225Z,1024.34
2023-02-05T10:28:03.043Z,1024.35
2023-02-05T10:29:02.849Z,1024.34
2023-02-05T10:30:02.804Z,1024.37
2023-02-05T10:31:03.040Z,1024.35
2023-02-05T10:32:03.414Z,1024.37
2023-02-05T10:33:02.976Z,1024.45
2023-02-05T10:34:03.502Z,1024.40
2023-02-05T10:35:03.025Z,1024.39
2023-02-05T10:36:02.959Z,1024.43
2023-02-05T10:37:03.430Z,1024.44
2023-02-05T10:38:04.701Z,1024.39
2023-02-05T10:39:03.392Z,1024.38
2023-02-05T10:40:03.361Z,1024.42
2023-02-05T10:41:03.252Z,1024.35
2023-02-05T10:42:03.142Z,1024.47
2023-02-05T10:43:02.538Z,1024.46
2023-02-05T10:44:03.167Z,1024.41
2023-02-05T10:45:02.823Z,1024.41
2023-02-05T10:46:02.795Z,1024.42
2023-02-05T10:47:03.236Z,1024.34
2023-02-05T10:48:02.828Z,1024.35
2023-02-05T10:49:02.771Z,1024.38
2023-02-05T10:50:02.621Z,1024.38
2023-02-05T10:51:03.227Z,1024.41
2023-02-05T10:52:03.604Z,1024.44
2023-02-05T10:53:03.480Z,1024.41
2023-02-05T10:54:03.416Z,1024.41
2023-02-05T10:55:03.488Z,1024.41
2023-02-05T10:56:03.266Z,1024.46
2023-02-05T10:57:02.313Z,1024.44
2023-02-05T10:58:02.910Z,1024.40
2023-02-05T10:59:02.785Z,1024.40
2023-02-05T11:00:02.991Z,1024.35
2023-02-05T11:01:02.773Z,1024.48
2023-02-05T11:02:02.638Z,1024.39
2023-02-05T11:03:03.167Z,1024.40
2023-02-05T11:04:03.161Z,1024.45
2023-02-05T11:05:03.053Z,1024.40
2023-02-05T11:06:02.938Z,1024.45
2023-02-05T11:07:02.740Z,1024.39
2023-02-05T11:08:03.243Z,1024.41
2023-02-05T11:09:03.140Z,1024.41
2023-02-05T11:10:02.959Z,1024.45
2023-02-05T11:11:02.819Z,1024.45
2023-02-05T11:12:03.018Z,1024.44
2023-02-05T11:13:02.536Z,1024.42
2023-02-05T11:14:02.352Z,1024.42
2023-02-05T11:15:02.255Z,1024.45
2023-02-05T11:16:02.163Z,1024.40
2023-02-05T11:17:02.069Z,1024.41
2023-02-05T11:18:02.876Z,1024.39
2023-02-05T11:19:02.428Z,1024.44
2023-02-05T11:20:02.346Z,1024.36
2023-02-05T11:21:02.759Z,1024.44
2023-02-05T11:22:02.425Z,1024.39
2023-02-05T11:23:03.040Z,1024.39
2023-02-05T11:24:03.112Z,1024.44
2023-02-05T11:25:03.049Z,1024.40
2023-02-05T11:26:02.927Z,1024.49
2023-02-05T11:27:03.090Z,1024.47
2023-02-05T11:28:02.786Z,1024.54
2023-02-05T11:29:02.884Z,1024.49
2023-02-05T11:30:02.447Z,1024.45
2023-02-05T11:31:02.490Z,1024.46
2023-02-05T11:32:02.439Z,1024.47
2023-02-05T11:33:02.547Z,1024.48
2023-02-05T11:34:01.984Z,1024.39
2023-02-05T11:35:02.590Z,1024.44
2023-02-05T11:36:01.970Z,1024.54
2023-02-05T11:37:02.318Z,1024.45
2023-02-05T11:38:02.422Z,1024.49
2023-02-05T11:39:02.031Z,1024.50
2023-02-05T11:40:02.585Z,1024.52
2023-02-05T11:41:02.517Z,1024.45
2023-02-05T11:42:02.216Z,1024.43
2023-02-05T11:43:02.688Z,1024.51
2023-02-05T11:44:02.798Z,1024.46
2023-02-05T11:45:02.691Z,1024.47
2023-02-05T11:46:02.900Z,1024.44
2023-02-05T11:47:02.805Z,1024.42
2023-02-05T11:48:02.545Z,1024.38
2023-02-05T11:49:02.537Z,1024.43
2023-02-05T11:50:02.496Z,1024.39
2023-02-05T11:51:02.400Z,1024.35
2023-02-05T11:52:02.767Z,1024.42
2023-02-05T11:53:02.361Z,1024.40
2023-02-05T11:54:02.234Z,1024.33
2023-02-05T11:55:02.119Z,1024.33
2023-02-05T11:56:02.079Z,1024.30
2023-02-05T11:57:02.379Z,1024.30
2023-02-05T11:58:02.805Z,1024.28
2023-02-05T11:59:02.728Z,1024.29
2023-02-05T12:00:02.680Z,1024.25
2023-02-05T12:01:02.403Z,1024.27
2023-02-05T12:02:02.919Z,1024.23
2023-02-05T12:03:02.832Z,1024.27
2023-02-05T12:04:02.738Z,1024.25
2023-02-05T12:05:02.643Z,1024.29
2023-02-05T12:06:02.724Z,1024.31